Time;durP1;ratioP1;P1;durP2;ratioP2;P2;SDS_P1;SDS_P2;PMS_P1;PMS_P2;Temp;Humidity;BMP_temperature;BMP_pressure;BME280_temperature;BME280_humidity;BME280_pressure;Samples;Min_cycle;Max_cycle;Signal;HPM_P1;HPM_P2
2023/03/23 00:04:13;;;;;;;20.37;11.97;;;10.70;99.90;;;;;;10462484;28;20298;-78
2023/03/23 00:09:34;;;;;;;21.40;13.13;;;10.70;99.90;;;;;;10474748;28;20375;-79
2023/03/23 00:14:55;;;;;;;18.13;12.50;;;10.70;99.90;;;;;;10465946;28;20292;-79
2023/03/23 00:20:15;;;;;;;19.40;12.90;;;10.70;99.90;;;;;;10462129;28;20492;-79
2023/03/23 00:25:35;;;;;;;18.47;13.17;;;10.60;99.90;;;;;;10424281;28;20200;-79
2023/03/23 00:31:05;;;;;;;19.63;13.77;;;10.60;99.90;;;;;;10455339;28;20381;-78
2023/03/23 00:36:28;;;;;;;20.47;12.83;;;10.60;99.90;;;;;;10451066;28;20249;-79
2023/03/23 00:41:48;;;;;;;23.57;13.73;;;10.50;99.90;;;;;;10437854;28;20203;-78
2023/03/23 00:47:09;;;;;;;41.37;21.50;;;10.50;99.90;;;;;;10437379;28;20224;-78
2023/03/23 00:52:31;;;;;;;25.23;13.77;;;10.40;99.90;;;;;;10428796;28;20477;-78
2023/03/23 00:57:51;;;;;;;21.60;12.43;;;10.40;99.90;;;;;;10446186;28;20212;-78
2023/03/23 01:03:17;;;;;;;17.67;11.10;;;10.30;99.90;;;;;;10451049;28;20197;-78
2023/03/23 01:08:44;;;;;;;15.50;10.10;;;10.30;99.90;;;;;;10447359;28;20371;-79
2023/03/23 01:14:05;;;;;;;16.80;10.27;;;10.20;99.90;;;;;;10499190;28;20231;-79
2023/03/23 01:19:25;;;;;;;15.97;10.43;;;10.10;99.90;;;;;;10446264;28;20205;-79
2023/03/23 01:24:46;;;;;;;18.93;11.43;;;10.00;99.90;;;;;;10453282;28;20419;-78
2023/03/23 01:30:07;;;;;;;18.00;10.90;;;10.00;99.90;;;;;;10424287;28;20313;-79
2023/03/23 01:35:28;;;;;;;14.53;9.70;;;10.00;99.90;;;;;;10435493;28;20219;-78
2023/03/23 01:40:48;;;;;;;14.27;9.13;;;9.90;99.90;;;;;;10421303;28;20205;-78
2023/03/23 01:46:07;;;;;;;15.27;9.33;;;9.90;99.90;;;;;;10407075;28;20198;-79
2023/03/23 01:51:28;;;;;;;13.77;9.77;;;9.80;99.90;;;;;;10424369;28;20233;-79
2023/03/23 01:56:53;;;;;;;12.47;8.93;;;9.80;99.90;;;;;;10460627;28;20238;-79
2023/03/23 02:02:14;;;;;;;11.27;8.40;;;9.70;99.90;;;;;;10426926;28;20197;-78
2023/03/23 02:07:34;;;;;;;11.00;7.70;;;9.70;99.90;;;;;;10437355;28;20192;-78
2023/03/23 02:13:00;;;;;;;11.53;8.00;;;9.70;99.90;;;;;;10462795;28;20213;-78
2023/03/23 02:18:34;;;;;;;15.43;8.27;;;9.60;99.90;;;;;;10456893;28;20196;-78
2023/03/23 02:24:20;;;;;;;13.60;8.17;;;9.60;99.90;;;;;;10461980;28;20213;-78
2023/03/23 02:30:06;;;;;;;12.70;7.17;;;9.50;99.90;;;;;;10461025;28;20536;-78
2023/03/23 02:35:30;;;;;;;11.93;8.23;;;9.50;99.90;;;;;;10460520;28;20247;-79
2023/03/23 02:40:52;;;;;;;11.40;7.30;;;9.50;99.90;;;;;;10447720;28;20200;-78
2023/03/23 02:46:15;;;;;;;9.77;7.37;;;9.40;99.90;;;;;;10440271;28;20204;-78
2023/03/23 02:51:36;;;;;;;14.13;7.10;;;9.30;99.90;;;;;;10439125;28;20219;-78
2023/03/23 02:56:57;;;;;;;9.63;6.90;;;9.30;99.90;;;;;;10454461;28;20213;-77
2023/03/23 03:02:29;;;;;;;10.37;6.20;;;9.20;99.90;;;;;;10451263;28;20194;-79
2023/03/23 03:08:18;;;;;;;10.90;7.07;;;9.20;99.90;;;;;;10487882;28;20189;-78
2023/03/23 03:13:48;;;;;;;13.63;8.00;;;9.20;99.90;;;;;;10439092;28;20237;-78
2023/03/23 03:19:19;;;;;;;12.23;7.97;;;9.20;99.90;;;;;;10448477;28;20235;-78
2023/03/23 03:24:40;;;;;;;13.07;7.77;;;9.00;99.90;;;;;;10444022;28;20231;-79
2023/03/23 03:30:04;;;;;;;14.63;7.87;;;9.10;99.90;;;;;;10412846;28;20187;-78
2023/03/23 03:35:24;;;;;;;14.77;8.90;;;9.10;99.90;;;;;;10440248;28;20249;-78
2023/03/23 03:40:44;;;;;;;11.97;7.43;;;9.10;99.90;;;;;;10430504;28;20396;-78
2023/03/23 03:46:04;;;;;;;12.33;7.73;;;9.20;99.90;;;;;;10439691;28;20189;-78
2023/03/23 03:51:27;;;;;;;14.20;8.20;;;9.20;99.90;;;;;;10469293;28;20180;-78
2023/03/23 03:56:48;;;;;;;11.77;8.17;;;9.20;99.90;;;;;;10459100;28;20242;-78
2023/03/23 04:02:33;;;;;;;11.80;7.13;;;9.20;99.90;;;;;;10425846;28;20201;-78
2023/03/23 04:07:53;;;;;;;13.20;8.67;;;9.20;99.90;;;;;;10464181;28;20520;-79
2023/03/23 04:13:13;;;;;;;11.83;7.17;;;9.20;99.90;;;;;;10432711;28;20233;-78
2023/03/23 04:18:57;;;;;;;15.80;9.93;;;9.20;99.90;;;;;;10430054;28;20209;-78
2023/03/23 04:24:21;;;;;;;10.90;7.87;;;9.30;99.90;;;;;;10432761;28;20194;-78
2023/03/23 04:29:42;;;;;;;17.53;8.47;;;9.30;99.90;;;;;;10418541;28;20208;-78
2023/03/23 04:35:06;;;;;;;13.97;8.37;;;9.30;99.90;;;;;;10443809;28;20232;-78
2023/03/23 04:40:37;;;;;;;13.23;8.97;;;9.30;99.90;;;;;;10443404;28;20488;-78
2023/03/23 04:46:08;;;;;;;13.03;7.63;;;9.30;99.90;;;;;;10424510;28;20203;-78
2023/03/23 04:51:31;;;;;;;12.40;8.13;;;9.30;99.90;;;;;;10423488;28;20275;-78
2023/03/23 04:57:03;;;;;;;12.47;8.20;;;9.30;99.90;;;;;;10464263;28;20237;-78
2023/03/23 05:02:29;;;;;;;8.80;7.13;;;9.40;99.90;;;;;;10423047;28;20495;-77
2023/03/23 05:07:51;;;;;;;10.57;7.57;;;9.40;99.90;;;;;;10476031;28;20203;-78
2023/03/23 05:13:14;;;;;;;17.07;10.20;;;9.40;99.90;;;;;;10450373;28;20328;-78
2023/03/23 05:18:40;;;;;;;13.30;9.03;;;9.50;99.90;;;;;;10444659;28;20208;-77
2023/03/23 05:24:04;;;;;;;22.33;14.27;;;9.50;99.90;;;;;;10436101;28;20519;-78
2023/03/23 05:29:25;;;;;;;27.73;13.83;;;9.50;99.90;;;;;;10435368;28;20201;-77
2023/03/23 05:34:51;;;;;;;16.37;9.77;;;9.50;99.90;;;;;;10422296;28;20531;-77
2023/03/23 05:40:11;;;;;;;13.20;8.30;;;9.60;99.90;;;;;;10422059;28;20194;-77
2023/03/23 05:45:35;;;;;;;22.43;12.90;;;9.60;99.90;;;;;;10421861;28;20269;-77
2023/03/23 05:50:57;;;;;;;19.50;12.20;;;9.70;99.90;;;;;;10424698;28;20570;-77
2023/03/23 05:56:19;;;;;;;14.93;9.40;;;9.70;99.90;;;;;;10441023;28;20244;-78
2023/03/23 06:01:59;;;;;;;19.37;11.17;;;9.80;99.90;;;;;;10433574;28;20497;-78
2023/03/23 06:07:20;;;;;;;25.53;16.23;;;9.90;99.90;;;;;;10449339;28;20189;-79
2023/03/23 06:12:50;;;;;;;18.23;13.50;;;9.90;99.90;;;;;;10454655;28;20229;-79
2023/03/23 06:18:12;;;;;;;18.13;11.10;;;10.00;99.90;;;;;;10441923;28;20536;-78
2023/03/23 06:23:53;;;;;;;15.67;9.83;;;10.10;99.90;;;;;;10448932;28;20196;-79
2023/03/23 06:29:16;;;;;;;16.03;8.80;;;10.00;99.90;;;;;;10461592;28;20194;-77
2023/03/23 06:34:44;;;;;;;19.17;11.70;;;10.00;99.90;;;;;;10438447;28;20277;-78
2023/03/23 06:40:23;;;;;;;15.73;10.27;;;10.10;99.90;;;;;;10471854;28;20550;-77
2023/03/23 06:45:51;;;;;;;12.63;7.93;;;10.10;99.90;;;;;;10456400;28;20449;-78
2023/03/23 06:51:41;;;;;;;9.63;6.60;;;10.20;99.90;;;;;;10446780;28;20285;-77
2023/03/23 06:57:01;;;;;;;16.03;9.90;;;10.50;99.90;;;;;;10426493;28;20240;-79
2023/03/23 07:02:21;;;;;;;10.83;8.10;;;10.80;99.90;;;;;;10412306;28;20205;-78
2023/03/23 07:07:45;;;;;;;10.10;5.57;;;11.40;99.90;;;;;;10470904;28;20218;-79
2023/03/23 07:13:17;;;;;;;10.50;6.23;;;11.40;99.90;;;;;;10469425;28;20223;-78
2023/03/23 07:18:43;;;;;;;8.43;5.60;;;11.30;99.90;;;;;;10479892;28;20509;-79
2023/03/23 07:24:04;;;;;;;12.60;6.97;;;11.10;99.90;;;;;;10452807;28;20199;-79
2023/03/23 07:29:50;;;;;;;10.90;6.00;;;11.10;99.90;;;;;;10441550;28;20279;-78
2023/03/23 07:35:16;;;;;;;10.13;5.43;;;11.00;99.90;;;;;;10367962;28;20599;-79
2023/03/23 07:40:46;;;;;;;8.70;6.20;;;11.00;99.90;;;;;;10462091;28;20277;-79
2023/03/23 07:46:10;;;;;;;12.70;7.30;;;11.00;99.90;;;;;;10429257;28;20227;-79
2023/03/23 07:51:39;;;;;;;14.87;8.30;;;11.00;99.90;;;;;;10367028;28;20213;-80
2023/03/23 07:57:01;;;;;;;11.97;7.23;;;11.00;99.90;;;;;;10431393;28;20228;-79
2023/03/23 08:02:26;;;;;;;11.73;5.67;;;11.00;99.90;;;;;;10403781;28;20205;-78
2023/03/23 08:08:18;;;;;;;12.37;6.67;;;11.00;99.90;;;;;;10498344;28;20186;-79
2023/03/23 08:14:14;;;;;;;6.70;4.93;;;11.10;99.90;;;;;;10385141;28;20320;-79
2023/03/23 08:20:08;;;;;;;15.67;7.83;;;11.10;99.90;;;;;;10376865;28;20213;-78
2023/03/23 08:25:57;;;;;;;17.47;10.63;;;11.10;99.90;;;;;;10347488;28;20254;-80
2023/03/23 08:31:44;;;;;;;9.30;6.33;;;11.10;99.90;;;;;;10243266;28;20217;-81
2023/03/23 08:37:28;;;;;;;8.50;4.73;;;11.00;99.90;;;;;;10249393;29;20237;-78
2023/03/23 08:43:17;;;;;;;11.30;5.80;;;11.00;99.90;;;;;;10165941;29;20264;-84
2023/03/23 08:49:00;;;;;;;10.20;4.77;;;10.90;99.90;;;;;;10268397;28;20212;-82
2023/03/23 08:54:40;;;;;;;10.00;5.73;;;10.80;99.90;;;;;;10256413;29;20312;-78
2023/03/23 09:00:20;;;;;;;10.30;8.00;;;10.70;99.90;;;;;;10248373;28;20283;-79
2023/03/23 09:06:01;;;;;;;10.60;5.70;;;10.70;99.90;;;;;;10285334;28;20206;-81
2023/03/23 09:11:31;;;;;;;17.70;11.43;;;10.70;99.90;;;;;;10340143;28;20207;-80
2023/03/23 09:16:51;;;;;;;18.50;10.57;;;10.70;99.90;;;;;;10349288;28;20474;-80
2023/03/23 09:22:10;;;;;;;13.40;7.10;;;10.60;99.90;;;;;;10370641;28;20208;-80
2023/03/23 09:27:30;;;;;;;12.07;6.87;;;10.60;99.90;;;;;;10339527;28;20209;-80
2023/03/23 09:32:50;;;;;;;12.50;6.57;;;10.60;99.90;;;;;;10319902;28;20212;-81
2023/03/23 09:38:12;;;;;;;12.77;6.67;;;10.60;99.90;;;;;;10307520;28;20596;-83
2023/03/23 09:43:39;;;;;;;14.17;6.50;;;10.60;99.90;;;;;;10321509;28;20517;-79
2023/03/23 09:49:04;;;;;;;18.00;7.83;;;10.60;99.90;;;;;;10321311;28;20187;-80
2023/03/23 09:54:33;;;;;;;13.60;6.67;;;10.60;99.90;;;;;;10330012;28;20317;-79
2023/03/23 10:00:05;;;;;;;11.37;6.50;;;10.60;99.90;;;;;;10338665;28;20222;-80
2023/03/23 10:05:42;;;;;;;13.63;8.47;;;10.50;99.90;;;;;;10314438;28;20243;-80
2023/03/23 10:11:08;;;;;;;16.40;5.90;;;10.60;99.90;;;;;;10338059;28;20264;-80
2023/03/23 10:16:48;;;;;;;7.80;5.03;;;10.60;99.90;;;;;;10377779;28;20231;-80
2023/03/23 10:22:13;;;;;;;9.90;5.30;;;10.70;99.90;;;;;;10333088;28;20491;-79
2023/03/23 10:27:44;;;;;;;9.73;5.30;;;10.70;99.90;;;;;;10342696;28;20216;-80
2023/03/23 10:33:09;;;;;;;7.10;5.30;;;10.70;99.90;;;;;;10328352;28;20260;-80
2023/03/23 10:38:40;;;;;;;6.23;4.67;;;10.70;99.90;;;;;;10343454;28;20255;-79
2023/03/23 10:44:01;;;;;;;4.60;3.80;;;10.70;99.90;;;;;;10341787;28;20227;-81
2023/03/23 10:49:25;;;;;;;5.07;3.53;;;10.70;99.90;;;;;;10314173;28;20207;-82
2023/03/23 10:55:15;;;;;;;8.60;4.20;;;10.70;99.90;;;;;;10299993;28;20256;-80
2023/03/23 11:00:44;;;;;;;6.47;3.90;;;10.60;99.90;;;;;;10352839;28;20207;-80
2023/03/23 11:06:06;;;;;;;6.90;3.90;;;10.70;99.90;;;;;;10350922;28;20202;-80
2023/03/23 11:11:26;;;;;;;4.20;3.80;;;10.80;99.90;;;;;;10326719;28;20195;-82
2023/03/23 11:16:53;;;;;;;4.87;3.40;;;11.00;99.90;;;;;;10345906;28;20230;-80
2023/03/23 11:22:24;;;;;;;3.93;3.40;;;11.00;99.90;;;;;;10362880;28;20227;-80
2023/03/23 11:27:45;;;;;;;7.03;4.60;;;10.90;99.90;;;;;;10339451;28;20209;-80
2023/03/23 11:33:15;;;;;;;8.53;5.47;;;11.00;99.90;;;;;;10377659;28;20235;-76
2023/03/23 11:38:36;;;;;;;6.23;4.50;;;11.00;99.90;;;;;;10314642;28;20196;-78
2023/03/23 11:43:56;;;;;;;7.97;4.00;;;11.10;99.90;;;;;;10331474;28;20211;-79
2023/03/23 11:49:47;;;;;;;11.23;5.93;;;11.20;99.90;;;;;;10381240;28;20183;-88
2023/03/23 11:55:18;;;;;;;5.63;3.63;;;11.20;99.90;;;;;;10378377;28;20276;-77
2023/03/23 12:00:58;;;;;;;12.47;7.37;;;11.20;99.90;;;;;;10352483;28;20226;-80
2023/03/23 12:06:37;;;;;;;9.73;6.20;;;11.20;99.90;;;;;;10363721;28;20200;-78
2023/03/23 12:12:17;;;;;;;6.17;4.43;;;11.30;99.90;;;;;;10360442;28;20226;-82
2023/03/23 12:17:49;;;;;;;34.27;18.03;;;11.40;99.90;;;;;;10299431;28;20241;-77
2023/03/23 12:23:24;;;;;;;5.03;3.87;;;11.70;99.90;;;;;;10342743;28;20237;-80
2023/03/23 12:29:08;;;;;;;61.77;29.60;;;12.00;99.90;;;;;;10348979;28;20215;-79
2023/03/23 12:34:45;;;;;;;33.93;16.27;;;12.20;99.90;;;;;;10362883;28;20231;-79
2023/03/23 12:40:08;;;;;;;10.43;5.97;;;12.20;99.90;;;;;;10343192;28;20211;-77
2023/03/23 12:45:47;;;;;;;21.93;11.17;;;12.10;99.90;;;;;;10350411;28;20197;-76
2023/03/23 12:51:23;;;;;;;16.83;8.40;;;11.90;99.90;;;;;;10347573;28;20220;-76
2023/03/23 12:56:53;;;;;;;6.63;4.30;;;12.00;99.90;;;;;;10349062;28;20244;-76
2023/03/23 13:02:32;;;;;;;7.90;4.50;;;12.00;99.90;;;;;;10335397;28;20206;-80
2023/03/23 13:08:15;;;;;;;5.30;2.97;;;11.90;99.90;;;;;;10347143;28;20260;-78
2023/03/23 13:44:56;;;;;;;6.00;3.73;;;12.50;99.90;;;;;;10550884;28;20966;-76
2023/03/23 13:50:17;;;;;;;4.33;3.23;;;12.50;99.90;;;;;;10525717;28;20224;-77
2023/03/23 13:55:42;;;;;;;4.80;2.70;;;12.30;99.90;;;;;;10494837;28;20184;-76
2023/03/23 14:01:18;;;;;;;35.83;18.77;;;12.30;99.90;;;;;;10491761;28;20273;-76
2023/03/23 14:06:38;;;;;;;6.73;4.20;;;12.10;99.90;;;;;;10515689;28;20493;-79
2023/03/23 14:12:14;;;;;;;15.87;8.90;;;12.10;99.90;;;;;;10519982;28;20205;-76
2023/03/23 14:17:42;;;;;;;17.30;8.57;;;12.10;99.90;;;;;;10530970;28;20269;-76
2023/03/23 14:23:03;;;;;;;6.60;3.53;;;12.10;99.90;;;;;;10540132;28;20252;-75
2023/03/23 14:28:23;;;;;;;6.70;4.20;;;12.20;99.90;;;;;;10544701;28;20194;-77
2023/03/23 14:33:43;;;;;;;20.87;7.97;;;12.30;99.90;;;;;;10541827;28;20186;-76
2023/03/23 14:39:27;;;;;;;8.63;3.70;;;12.30;99.90;;;;;;10543737;28;20202;-77
2023/03/23 14:44:50;;;;;;;4.57;3.37;;;12.40;99.90;;;;;;10544767;28;20224;-76
2023/03/23 14:50:28;;;;;;;6.17;3.43;;;12.30;99.90;;;;;;10524422;28;20213;-77
2023/03/23 14:55:50;;;;;;;12.43;5.77;;;12.30;99.90;;;;;;10477548;28;20194;-76
2023/03/23 15:01:19;;;;;;;17.83;10.80;;;12.30;99.90;;;;;;10443317;28;20242;-76
2023/03/23 15:06:46;;;;;;;10.37;5.77;;;12.30;99.90;;;;;;10455312;28;20517;-77
2023/03/23 15:12:06;;;;;;;6.33;4.03;;;12.20;99.90;;;;;;10415666;28;20733;-76
2023/03/23 15:17:32;;;;;;;8.63;3.90;;;12.40;99.90;;;;;;10423454;28;20206;-76
2023/03/23 15:22:53;;;;;;;6.10;3.60;;;12.50;99.90;;;;;;10420134;28;20529;-78
2023/03/23 15:28:27;;;;;;;6.10;3.17;;;12.60;99.90;;;;;;10413315;28;20462;-78
2023/03/23 15:33:58;;;;;;;5.40;3.17;;;12.50;99.90;;;;;;10421132;28;20437;-78
2023/03/23 15:39:18;;;;;;;7.47;3.50;;;12.50;99.90;;;;;;10434092;28;20191;-80
2023/03/23 15:44:38;;;;;;;7.37;4.20;;;12.40;99.90;;;;;;10409957;28;20220;-77
2023/03/23 15:50:10;;;;;;;7.70;4.80;;;12.40;99.90;;;;;;10406157;28;20207;-78
2023/03/23 15:55:38;;;;;;;4.87;3.40;;;12.30;99.90;;;;;;10431757;28;20195;-77
2023/03/23 16:01:02;;;;;;;9.67;6.33;;;12.30;99.90;;;;;;10434316;28;20767;-79
2023/03/23 16:06:34;;;;;;;12.23;6.40;;;12.30;99.90;;;;;;10432252;28;20191;-77
2023/03/23 16:11:56;;;;;;;16.77;6.77;;;12.20;99.90;;;;;;10435004;28;20432;-77
2023/03/23 16:17:19;;;;;;;17.03;8.20;;;12.30;99.90;;;;;;10436208;28;20249;-78
2023/03/23 16:22:40;;;;;;;13.83;5.67;;;12.20;99.90;;;;;;10436604;28;20233;-77
2023/03/23 16:28:01;;;;;;;23.10;9.80;;;12.20;99.90;;;;;;10432568;28;20225;-78
2023/03/23 16:33:22;;;;;;;17.13;6.60;;;12.10;99.90;;;;;;10437918;28;20198;-77
2023/03/23 16:38:43;;;;;;;26.67;9.80;;;12.10;99.90;;;;;;10434531;28;20373;-78
2023/03/23 16:44:05;;;;;;;14.90;7.20;;;12.00;99.90;;;;;;10433561;28;20325;-77
2023/03/23 16:49:26;;;;;;;7.57;4.13;;;12.00;99.90;;;;;;10436582;28;20194;-78
2023/03/23 16:54:47;;;;;;;12.57;6.07;;;11.90;99.90;;;;;;10436464;28;20760;-77
2023/03/23 17:00:13;;;;;;;12.17;6.50;;;11.90;99.90;;;;;;10434477;28;20223;-77
2023/03/23 17:05:36;;;;;;;11.00;5.33;;;11.80;99.90;;;;;;10436634;28;20202;-78
2023/03/23 17:10:57;;;;;;;7.30;4.10;;;11.70;99.90;;;;;;10442284;28;20232;-77
2023/03/23 17:16:19;;;;;;;9.80;5.37;;;11.70;99.90;;;;;;10438950;28;20252;-77
2023/03/23 17:21:40;;;;;;;14.80;7.73;;;11.70;99.90;;;;;;10436309;28;20227;-76
2023/03/23 17:27:01;;;;;;;11.30;5.63;;;11.60;99.90;;;;;;10417407;28;20274;-77
2023/03/23 17:32:23;;;;;;;13.53;6.17;;;11.50;99.90;;;;;;10395231;28;20189;-78
2023/03/23 17:37:44;;;;;;;15.13;6.93;;;11.50;99.90;;;;;;10395239;28;20509;-77
2023/03/23 17:43:05;;;;;;;11.07;5.90;;;11.40;99.90;;;;;;10405255;28;20463;-77
2023/03/23 17:48:27;;;;;;;11.40;6.47;;;11.40;99.90;;;;;;10427033;28;20200;-77
2023/03/23 17:53:48;;;;;;;7.73;4.13;;;11.40;99.90;;;;;;10393492;28;20198;-77
2023/03/23 17:59:09;;;;;;;4.90;3.20;;;11.40;99.90;;;;;;10429802;28;20199;-77
2023/03/23 18:04:30;;;;;;;4.03;2.00;;;11.30;99.90;;;;;;10420245;28;20249;-77
2023/03/23 18:09:51;;;;;;;4.60;2.10;;;11.30;99.90;;;;;;10393935;28;20198;-77
2023/03/23 18:15:13;;;;;;;4.13;2.37;;;11.20;99.90;;;;;;10416225;28;20194;-77
2023/03/23 18:20:34;;;;;;;4.70;1.93;;;11.20;99.90;;;;;;10429517;28;20231;-77
2023/03/23 18:25:55;;;;;;;5.03;2.60;;;11.10;99.90;;;;;;10435232;28;20485;-77
2023/03/23 18:31:16;;;;;;;4.77;1.77;;;11.10;99.90;;;;;;10442112;28;20198;-76
2023/03/23 18:36:38;;;;;;;10.40;4.70;;;11.00;99.90;;;;;;10437784;28;20201;-77
2023/03/23 18:41:59;;;;;;;9.00;4.30;;;11.00;99.90;;;;;;10435413;28;20303;-76
2023/03/23 18:47:21;;;;;;;13.23;6.43;;;10.90;99.90;;;;;;10401002;28;20191;-76
2023/03/23 18:52:43;;;;;;;15.27;6.50;;;10.80;99.90;;;;;;10430999;28;20509;-77
2023/03/23 18:58:04;;;;;;;11.73;5.90;;;10.70;99.90;;;;;;10441976;28;20186;-76
2023/03/23 19:03:25;;;;;;;24.10;12.10;;;10.60;99.90;;;;;;10400585;28;20235;-76
2023/03/23 19:08:48;;;;;;;16.80;8.17;;;10.50;99.90;;;;;;10471175;28;20213;-77
2023/03/23 19:14:09;;;;;;;11.00;5.27;;;10.40;99.90;;;;;;10472615;28;20236;-77
2023/03/23 19:19:30;;;;;;;6.40;3.43;;;10.40;99.90;;;;;;10402285;28;20502;-76
2023/03/23 19:24:51;;;;;;;6.17;2.83;;;10.30;99.90;;;;;;10440765;28;20268;-77
2023/03/23 19:30:13;;;;;;;7.03;2.30;;;10.20;99.90;;;;;;10430496;28;20202;-76
2023/03/23 19:35:34;;;;;;;6.43;3.07;;;10.20;99.90;;;;;;10413856;28;20202;-76
2023/03/23 19:40:56;;;;;;;5.83;2.80;;;10.10;99.90;;;;;;10398942;28;20556;-76
2023/03/23 19:46:17;;;;;;;10.20;4.80;;;10.10;99.90;;;;;;10397990;28;20502;-76
2023/03/23 19:51:39;;;;;;;5.23;2.80;;;10.10;99.90;;;;;;10399000;28;20209;-76
2023/03/23 19:57:00;;;;;;;10.70;4.40;;;10.00;99.90;;;;;;10399612;28;20262;-76
2023/03/23 20:02:21;;;;;;;19.17;7.77;;;10.00;99.90;;;;;;10409775;28;20232;-76
2023/03/23 20:07:42;;;;;;;33.90;14.37;;;10.00;99.90;;;;;;10396983;28;20199;-76
2023/03/23 20:13:06;;;;;;;36.23;16.50;;;9.90;99.90;;;;;;10398288;28;20207;-76
2023/03/23 20:18:30;;;;;;;33.87;16.90;;;9.80;99.90;;;;;;10415945;28;20204;-77
2023/03/23 20:23:55;;;;;;;52.73;21.00;;;9.80;99.90;;;;;;10399385;28;20274;-76
2023/03/23 20:29:16;;;;;;;42.23;18.67;;;9.70;99.90;;;;;;10437030;28;20202;-76
2023/03/23 20:34:37;;;;;;;30.30;15.17;;;9.60;99.90;;;;;;10432502;28;20202;-76
2023/03/23 20:40:06;;;;;;;22.10;7.83;;;9.60;99.90;;;;;;10437024;28;20272;-76
2023/03/23 20:45:27;;;;;;;42.70;22.53;;;9.50;99.90;;;;;;10407537;28;20209;-76
2023/03/23 20:50:49;;;;;;;33.87;14.10;;;9.50;99.90;;;;;;10435349;28;20232;-77
2023/03/23 20:56:10;;;;;;;23.33;8.70;;;9.40;99.90;;;;;;10431694;28;20235;-77
2023/03/23 21:01:32;;;;;;;26.30;11.20;;;9.40;99.90;;;;;;10436397;28;20438;-76
2023/03/23 21:06:54;;;;;;;38.47;18.83;;;9.30;99.90;;;;;;10472203;28;20234;-76
2023/03/23 21:12:16;;;;;;;16.13;8.53;;;9.30;99.90;;;;;;10478121;28;20272;-77
2023/03/23 21:17:37;;;;;;;15.33;6.53;;;9.20;99.90;;;;;;10445283;28;20226;-76
2023/03/23 21:22:58;;;;;;;19.07;8.27;;;9.20;99.90;;;;;;10447393;28;20254;-76
2023/03/23 21:28:20;;;;;;;15.37;7.40;;;9.10;99.90;;;;;;10436290;28;20201;-76
2023/03/23 21:33:41;;;;;;;22.50;10.60;;;9.00;99.90;;;;;;10432567;28;20201;-76
2023/03/23 21:39:04;;;;;;;20.57;11.73;;;9.00;99.90;;;;;;10436266;28;20236;-76
2023/03/23 21:44:25;;;;;;;14.03;8.47;;;8.90;99.90;;;;;;10413297;28;20323;-77
2023/03/23 21:49:47;;;;;;;15.47;7.90;;;8.80;99.90;;;;;;10423737;28;20200;-76
2023/03/23 21:55:11;;;;;;;10.43;5.80;;;8.80;99.90;;;;;;10436148;28;20188;-77
2023/03/23 22:00:33;;;;;;;8.70;4.37;;;8.70;99.90;;;;;;10435811;28;20271;-76
2023/03/23 22:05:54;;;;;;;16.60;6.30;;;8.70;99.90;;;;;;10413857;28;20520;-76
2023/03/23 22:11:23;;;;;;;30.20;10.00;;;8.70;99.90;;;;;;10402883;28;20517;-76
2023/03/23 22:16:45;;;;;;;23.93;11.53;;;8.70;99.90;;;;;;10419976;28;20230;-77
2023/03/23 22:22:06;;;;;;;21.60;7.90;;;8.70;99.90;;;;;;10441194;28;20227;-77
2023/03/23 22:27:27;;;;;;;21.97;9.73;;;8.70;99.90;;;;;;10428327;28;20431;-77
2023/03/23 22:32:48;;;;;;;26.13;10.67;;;8.60;99.90;;;;;;10436897;28;20226;-77
2023/03/23 22:38:09;;;;;;;22.33;8.03;;;8.60;99.90;;;;;;10402031;28;20438;-77
2023/03/23 22:43:30;;;;;;;10.53;5.87;;;8.60;99.90;;;;;;10401472;28;20239;-77
2023/03/23 22:48:51;;;;;;;8.17;4.27;;;8.60;99.90;;;;;;10422390;28;20407;-76
2023/03/23 22:54:14;;;;;;;7.73;4.20;;;8.50;99.90;;;;;;10441235;28;20206;-77
2023/03/23 22:59:35;;;;;;;8.03;4.23;;;8.50;99.90;;;;;;10442115;28;20199;-77
2023/03/23 23:04:57;;;;;;;10.03;5.00;;;8.40;99.90;;;;;;10465233;28;20253;-77
2023/03/23 23:10:18;;;;;;;15.63;7.27;;;8.40;99.90;;;;;;10482190;28;20210;-76
2023/03/23 23:15:42;;;;;;;19.90;8.97;;;8.30;99.90;;;;;;10460033;28;20565;-76
2023/03/23 23:21:07;;;;;;;14.17;5.90;;;8.30;99.90;;;;;;10454356;28;20273;-76
2023/03/23 23:26:31;;;;;;;8.00;5.10;;;8.20;99.90;;;;;;10441125;28;20213;-76
2023/03/23 23:31:52;;;;;;;9.80;4.57;;;8.20;99.90;;;;;;10439724;28;20234;-76
2023/03/23 23:37:13;;;;;;;6.47;4.70;;;8.20;99.90;;;;;;10439925;28;20507;-77
2023/03/23 23:42:35;;;;;;;5.77;3.67;;;8.10;99.90;;;;;;10433523;28;20509;-76
2023/03/23 23:47:57;;;;;;;6.43;4.30;;;8.10;99.90;;;;;;10411399;28;20294;-77
2023/03/23 23:53:21;;;;;;;7.33;3.57;;;8.10;99.90;;;;;;10439888;28;20192;-76
2023/03/23 23:58:42;;;;;;;7.23;4.30;;;8.10;99.90;;;;;;10439864;28;20194;-76
